Time;durP1;ratioP1;P1;durP2;ratioP2;P2;SDS_P1;SDS_P2;PMS_P1;PMS_P2;Temp;Humidity;BMP_temperature;BMP_pressure;BME280_temperature;BME280_humidity;BME280_pressure;Samples;Min_cycle;Max_cycle;Signal;HPM_P1;HPM_P2
2023/12/20 00:01:02;;;;;;;4.20;1.48;;;;;;;4.79;100.00;97297.47;4998732;28;20779;-58
2023/12/20 00:03:29;;;;;;;3.40;1.40;;;;;;;4.74;100.00;97295.41;5000751;28;20485;-58
2023/12/20 00:06:07;;;;;;;2.72;1.30;;;;;;;4.84;100.00;97294.13;5002378;28;20128;-57
2023/12/20 00:08:34;;;;;;;3.25;1.50;;;;;;;4.84;100.00;97296.78;5001368;28;20034;-59
2023/12/20 00:11:00;;;;;;;2.65;1.30;;;;;;;4.88;100.00;97289.97;5000596;28;20046;-59
2023/12/20 00:13:27;;;;;;;6.63;1.70;;;;;;;4.77;100.00;97276.22;4993026;28;20077;-63
2023/12/20 00:15:53;;;;;;;3.03;1.35;;;;;;;4.73;100.00;97274.16;5002975;28;20121;-63
2023/12/20 00:18:20;;;;;;;4.70;1.83;;;;;;;4.64;100.00;97268.25;4979213;28;20074;-62
2023/12/20 00:20:47;;;;;;;3.47;1.50;;;;;;;4.51;100.00;97267.31;4993577;28;20069;-59
2023/12/20 00:23:13;;;;;;;5.07;1.52;;;;;;;4.39;100.00;97260.97;5000564;28;20492;-57
2023/12/20 00:25:40;;;;;;;3.60;1.67;;;;;;;4.25;100.00;97257.53;5001854;28;20040;-58
2023/12/20 00:28:07;;;;;;;3.75;1.75;;;;;;;4.16;100.00;97257.78;4998408;28;20041;-59
2023/12/20 00:30:33;;;;;;;4.50;1.80;;;;;;;4.11;100.00;97257.59;4998555;28;20054;-58
2023/12/20 00:33:00;;;;;;;3.08;1.77;;;;;;;4.09;100.00;97253.50;4997353;28;20042;-57
2023/12/20 00:35:27;;;;;;;4.18;1.85;;;;;;;4.03;100.00;97255.16;5002797;28;20041;-59
2023/12/20 00:37:53;;;;;;;4.22;1.75;;;;;;;4.00;100.00;97260.94;5003428;28;20045;-57
2023/12/20 00:40:20;;;;;;;3.65;1.42;;;;;;;3.94;100.00;97259.13;5000875;28;20046;-58
2023/12/20 00:42:47;;;;;;;3.20;1.65;;;;;;;3.91;100.00;97265.72;4995015;28;20146;-59
2023/12/20 00:45:14;;;;;;;3.30;1.60;;;;;;;3.89;100.00;97270.47;5000878;28;20045;-59
2023/12/20 00:47:41;;;;;;;5.10;2.22;;;;;;;3.79;100.00;97268.22;5001204;28;20557;-59
2023/12/20 00:50:09;;;;;;;4.40;1.88;;;;;;;3.85;100.00;97285.31;4998426;28;20109;-58
2023/12/20 00:52:36;;;;;;;3.53;1.48;;;;;;;3.82;100.00;97283.88;5003292;28;20034;-57
2023/12/20 00:55:03;;;;;;;6.28;1.60;;;;;;;3.83;100.00;97290.06;4995323;28;20041;-59
2023/12/20 00:57:31;;;;;;;3.95;1.65;;;;;;;3.80;100.00;97283.28;4995824;28;20034;-58
2023/12/20 00:59:57;;;;;;;4.28;1.70;;;;;;;3.83;100.00;97290.88;4995993;28;20045;-58
2023/12/20 01:02:24;;;;;;;4.47;1.85;;;;;;;3.84;100.00;97299.75;4999057;28;20062;-58
2023/12/20 01:04:51;;;;;;;3.15;1.55;;;;;;;3.81;100.00;97289.44;5002139;28;20066;-58
2023/12/20 01:07:18;;;;;;;5.15;1.90;;;;;;;3.75;100.00;97283.06;5000012;28;20038;-59
2023/12/20 01:09:45;;;;;;;3.60;1.35;;;;;;;3.68;100.00;97276.91;4999654;28;20070;-58
2023/12/20 01:12:12;;;;;;;5.13;1.90;;;;;;;3.71;100.00;97288.03;5001767;28;20065;-59
2023/12/20 01:14:39;;;;;;;3.63;1.92;;;;;;;3.71;100.00;97290.69;4995825;28;20115;-58
2023/12/20 01:17:06;;;;;;;4.78;2.08;;;;;;;3.69;100.00;97292.75;4997603;28;20049;-59
2023/12/20 01:19:32;;;;;;;2.72;1.65;;;;;;;3.68;100.00;97293.78;4998353;28;20045;-63
2023/12/20 01:21:59;;;;;;;4.43;2.10;;;;;;;3.58;100.00;97298.75;5000664;28;20057;-64
2023/12/20 01:24:25;;;;;;;3.53;1.65;;;;;;;3.59;100.00;97298.56;4999066;28;20062;-61
2023/12/20 01:26:52;;;;;;;4.95;2.28;;;;;;;3.63;100.00;97302.47;4996916;28;20129;-61
2023/12/20 01:29:19;;;;;;;4.43;1.95;;;;;;;3.62;100.00;97302.66;4996038;28;20103;-58
2023/12/20 01:31:45;;;;;;;4.25;1.88;;;;;;;3.64;100.00;97311.31;5002192;28;20042;-58
2023/12/20 01:34:12;;;;;;;0.90;0.43;;;;;;;4.11;100.00;97332.63;4996938;28;20358;-58
2023/12/20 01:36:39;;;;;;;1.45;0.30;;;;;;;4.50;100.00;97315.78;5007057;28;20514;-62
2023/12/20 01:39:06;;;;;;;0.35;0.30;;;;;;;4.76;100.00;97287.97;4996878;28;20034;-60
2023/12/20 01:41:49;;;;;;;0.75;0.75;;;;;;;4.95;100.00;97270.06;5001756;28;20547;-61
2023/12/20 01:44:16;;;;;;;0.60;0.40;;;;;;;5.10;100.00;97258.22;5002445;28;20517;-63
2023/12/20 01:46:43;;;;;;;0.98;0.20;;;;;;;5.12;100.00;97258.00;5001049;28;20042;-57
2023/12/20 01:49:09;;;;;;;0.30;0.20;;;;;;;5.16;100.00;97260.00;5002585;28;20046;-58
2023/12/20 01:51:36;;;;;;;0.35;0.20;;;;;;;5.05;100.00;97255.38;5002478;28;20117;-58
2023/12/20 01:54:04;;;;;;;0.60;0.20;;;;;;;5.09;100.00;97245.84;4990300;28;20510;-57
2023/12/20 01:56:32;;;;;;;0.15;0.15;;;;;;;5.02;100.00;97261.97;5001028;28;20050;-58
2023/12/20 01:59:00;;;;;;;0.10;0.10;;;;;;;5.03;100.00;97255.59;5003019;28;20125;-58
2023/12/20 02:01:28;;;;;;;0.30;0.20;;;;;;;5.05;100.00;97255.38;5004850;28;20065;-58
2023/12/20 02:03:55;;;;;;;0.10;0.10;;;;;;;5.01;100.00;97254.16;5005479;28;20041;-59
2023/12/20 02:06:24;;;;;;;0.63;0.20;;;;;;;4.94;100.00;97264.97;5002831;28;20477;-58
2023/12/20 02:08:51;;;;;;;0.88;0.05;;;;;;;4.91;100.00;97260.00;5000707;28;20066;-59
2023/12/20 02:11:17;;;;;;;0.95;0.17;;;;;;;4.87;100.00;97262.28;5004768;28;20041;-58
2023/12/20 02:13:44;;;;;;;0.10;0.10;;;;;;;4.84;100.00;97257.38;5002697;28;20065;-57
2023/12/20 02:16:11;;;;;;;0.32;0.20;;;;;;;4.84;100.00;97261.91;4993298;28;20052;-58
2023/12/20 02:18:39;;;;;;;0.10;0.10;;;;;;;4.79;100.00;97251.84;4993048;28;20046;-57
2023/12/20 02:21:05;;;;;;;0.28;0.20;;;;;;;4.77;100.00;97264.66;5000908;28;20045;-58
2023/12/20 02:23:32;;;;;;;0.35;0.20;;;;;;;4.63;100.00;97255.88;5003411;28;20077;-63
2023/12/20 02:25:59;;;;;;;0.20;0.20;;;;;;;4.62;100.00;97265.78;4997007;28;20045;-61
2023/12/20 02:28:26;;;;;;;0.13;0.13;;;;;;;4.54;100.00;97264.16;5004219;28;20046;-62
2023/12/20 02:30:52;;;;;;;0.35;0.20;;;;;;;4.50;100.00;97267.50;4994672;28;20531;-62
2023/12/20 02:33:19;;;;;;;0.63;0.35;;;;;;;4.47;100.00;97254.53;5002879;28;20048;-64
2023/12/20 02:35:46;;;;;;;1.23;0.30;;;;;;;4.47;100.00;97267.94;5002076;28;20041;-63
2023/12/20 02:38:12;;;;;;;0.20;0.20;;;;;;;4.47;100.00;97266.09;5005252;28;20076;-62
2023/12/20 02:40:39;;;;;;;0.65;0.30;;;;;;;4.37;100.00;97263.03;4999046;28;20667;-62
2023/12/20 02:43:05;;;;;;;0.30;0.20;;;;;;;4.31;100.00;97269.25;5005161;28;20048;-63
2023/12/20 02:45:32;;;;;;;0.30;0.30;;;;;;;4.28;100.00;97274.00;5001999;28;20433;-64
2023/12/20 02:47:58;;;;;;;0.20;0.15;;;;;;;4.31;100.00;97264.72;4999826;28;20645;-62
2023/12/20 02:50:25;;;;;;;0.40;0.22;;;;;;;4.24;100.00;97270.09;5004665;28;20069;-62
2023/12/20 02:52:51;;;;;;;0.30;0.30;;;;;;;4.24;100.00;97275.47;5001702;28;20138;-63
2023/12/20 02:55:18;;;;;;;0.20;0.20;;;;;;;4.15;100.00;97272.22;5005344;28;20044;-64
2023/12/20 02:57:45;;;;;;;0.40;0.30;;;;;;;4.07;100.00;97280.50;5004104;28;20033;-63
2023/12/20 03:00:12;;;;;;;0.20;0.20;;;;;;;4.02;100.00;97274.97;5004140;28;20065;-63
2023/12/20 03:02:38;;;;;;;0.47;0.25;;;;;;;4.07;100.00;97285.03;5003894;28;20042;-58
2023/12/20 03:05:05;;;;;;;2.92;0.20;;;;;;;4.04;100.00;97283.59;4997702;28;20049;-59
2023/12/20 03:07:32;;;;;;;0.57;0.25;;;;;;;3.95;100.00;97287.53;5004542;28;20044;-58
2023/12/20 03:09:59;;;;;;;0.50;0.28;;;;;;;3.96;100.00;97287.34;5000660;28;20096;-58
2023/12/20 03:12:44;;;;;;;1.75;0.40;;;;;;;3.89;100.00;97283.84;5000978;28;20053;-58
2023/12/20 03:15:11;;;;;;;0.20;0.20;;;;;;;3.83;100.00;97290.06;5004744;28;20172;-58
2023/12/20 03:17:38;;;;;;;0.60;0.30;;;;;;;3.85;100.00;97294.16;5004012;28;20042;-59
2023/12/20 03:20:05;;;;;;;0.20;0.20;;;;;;;3.78;100.00;97293.34;4994169;28;20053;-58
2023/12/20 03:22:32;;;;;;;1.65;0.30;;;;;;;3.73;100.00;97293.97;5000636;28;20132;-59
2023/12/20 03:24:58;;;;;;;1.45;0.22;;;;;;;3.71;100.00;97292.53;5001536;28;20569;-57
2023/12/20 03:27:25;;;;;;;0.20;0.20;;;;;;;3.79;100.00;97284.28;5004780;28;20045;-58
2023/12/20 03:29:52;;;;;;;0.60;0.30;;;;;;;3.75;100.00;97289.25;5002729;28;20057;-59
2023/12/20 03:32:18;;;;;;;0.17;0.17;;;;;;;3.66;100.00;97290.50;4998259;28;20061;-58
2023/12/20 03:34:44;;;;;;;0.40;0.30;;;;;;;3.66;100.00;97295.88;4997421;28;20053;-57
2023/12/20 03:37:11;;;;;;;0.13;0.13;;;;;;;3.70;100.00;97293.59;5002619;28;20084;-58
2023/12/20 03:39:38;;;;;;;0.47;0.30;;;;;;;3.62;100.00;97292.75;4995807;28;20042;-62
2023/12/20 03:42:04;;;;;;;0.22;0.20;;;;;;;3.66;100.00;97290.50;5003123;28;20516;-59
2023/12/20 03:44:31;;;;;;;0.43;0.32;;;;;;;3.66;100.00;97290.50;5003051;28;20050;-58
2023/12/20 03:46:58;;;;;;;0.35;0.20;;;;;;;3.61;100.00;97291.13;5003727;28;20093;-59
2023/12/20 03:49:24;;;;;;;0.73;0.35;;;;;;;3.63;100.00;97298.94;4999858;28;20033;-59
2023/12/20 03:51:51;;;;;;;0.85;0.30;;;;;;;3.62;100.00;97300.00;5009151;28;20493;-62
2023/12/20 03:54:17;;;;;;;0.35;0.30;;;;;;;3.59;100.00;97293.22;4994088;28;20038;-64
2023/12/20 03:56:44;;;;;;;0.40;0.40;;;;;;;3.57;100.00;97292.56;4996649;28;20038;-62
2023/12/20 03:59:13;;;;;;;0.30;0.30;;;;;;;3.57;100.00;97294.44;5003945;28;20567;-61
2023/12/20 04:01:44;;;;;;;0.55;0.40;;;;;;;3.59;100.00;97298.56;4989951;28;20042;-60
2023/12/20 04:04:11;;;;;;;1.52;0.50;;;;;;;3.62;100.00;97306.16;5003354;28;20046;-58
2023/12/20 04:06:38;;;;;;;1.38;0.25;;;;;;;3.61;100.00;97309.06;5003561;28;20052;-58
2023/12/20 04:09:05;;;;;;;0.52;0.38;;;;;;;3.60;100.00;97305.56;5003555;28;20517;-59
2023/12/20 04:11:31;;;;;;;0.43;0.30;;;;;;;3.61;100.00;97301.03;5003802;28;20037;-59
2023/12/20 04:13:58;;;;;;;1.45;0.40;;;;;;;3.67;100.00;97305.53;5002091;28;20125;-57
2023/12/20 04:16:24;;;;;;;0.30;0.20;;;;;;;3.68;100.00;97317.09;4997668;28;20064;-58
2023/12/20 04:18:50;;;;;;;0.63;0.28;;;;;;;3.63;100.00;97315.84;5003704;28;20069;-59
2023/12/20 04:21:17;;;;;;;0.47;0.20;;;;;;;3.66;100.00;97313.78;5001793;28;20037;-58
2023/12/20 04:23:44;;;;;;;0.40;0.30;;;;;;;3.62;100.00;97308.03;5000362;28;20046;-57
2023/12/20 04:26:11;;;;;;;0.50;0.30;;;;;;;3.60;100.00;97300.19;4999005;28;20038;-58
2023/12/20 04:28:37;;;;;;;0.25;0.20;;;;;;;3.53;100.00;97320.00;5004940;28;20101;-58
2023/12/20 04:31:04;;;;;;;0.25;0.20;;;;;;;3.49;100.00;97309.69;5011719;28;20449;-60
2023/12/20 04:33:30;;;;;;;0.50;0.25;;;;;;;3.59;100.00;97313.78;4997681;28;20041;-59
2023/12/20 04:35:57;;;;;;;0.50;0.22;;;;;;;3.60;100.00;97323.47;4995579;28;20046;-62
2023/12/20 04:38:24;;;;;;;0.45;0.30;;;;;;;3.65;100.00;97331.72;4993654;28;20043;-62
2023/12/20 04:40:50;;;;;;;1.40;0.40;;;;;;;3.65;100.00;97337.06;4996954;28;20478;-63
2023/12/20 04:43:17;;;;;;;0.20;0.20;;;;;;;3.65;100.00;97337.06;5003955;28;20049;-60
2023/12/20 04:45:44;;;;;;;0.80;0.20;;;;;;;3.70;100.00;97339.09;4994295;28;20039;-61
2023/12/20 04:48:11;;;;;;;0.25;0.25;;;;;;;3.72;100.00;97326.34;5003498;28;20498;-62
2023/12/20 04:50:37;;;;;;;0.50;0.32;;;;;;;3.70;100.00;97339.09;5000409;28;20053;-60
2023/12/20 04:53:04;;;;;;;0.85;0.50;;;;;;;3.71;100.00;97346.94;5003377;28;20041;-63
2023/12/20 04:55:30;;;;;;;0.90;0.38;;;;;;;3.71;100.00;97346.94;4999997;28;20068;-63
2023/12/20 04:57:57;;;;;;;0.45;0.30;;;;;;;3.80;100.00;97344.03;5002784;28;20073;-63
2023/12/20 05:00:24;;;;;;;1.98;0.38;;;;;;;3.75;100.00;97352.69;5002396;28;20052;-62
2023/12/20 05:02:50;;;;;;;0.63;0.20;;;;;;;3.71;100.00;97362.16;5001752;28;20065;-62
2023/12/20 05:05:17;;;;;;;0.93;0.40;;;;;;;3.76;100.00;97363.19;5000889;28;20121;-63
2023/12/20 05:07:44;;;;;;;0.82;0.40;;;;;;;3.81;100.00;97361.75;4994632;28;20445;-63
2023/12/20 05:10:11;;;;;;;0.60;0.55;;;;;;;3.85;100.00;97365.66;5002898;28;20049;-57
2023/12/20 05:12:38;;;;;;;1.33;0.52;;;;;;;3.78;100.00;97368.34;5003505;28;20056;-59
2023/12/20 05:15:08;;;;;;;1.67;0.70;;;;;;;3.75;100.00;97380.31;4998352;28;20683;-62
2023/12/20 05:17:34;;;;;;;1.13;0.63;;;;;;;3.83;100.00;97371.22;5002778;28;20046;-63
2023/12/20 05:20:01;;;;;;;1.08;0.60;;;;;;;3.87;100.00;97379.69;5000479;28;20053;-64
2023/12/20 05:22:28;;;;;;;1.05;0.63;;;;;;;3.82;100.00;97382.97;4999531;28;20076;-63
2023/12/20 05:24:55;;;;;;;1.40;0.80;;;;;;;3.82;100.00;97390.19;4999870;28;20058;-62
2023/12/20 05:27:22;;;;;;;1.60;0.90;;;;;;;3.79;100.00;97395.97;5001012;28;20513;-65
2023/12/20 05:29:48;;;;;;;2.45;0.70;;;;;;;3.85;100.00;97400.47;5001822;28;20046;-63
2023/12/20 05:32:15;;;;;;;1.70;0.75;;;;;;;3.85;100.00;97395.97;5003046;28;20038;-65
2023/12/20 05:34:42;;;;;;;1.88;0.90;;;;;;;3.82;100.00;97400.88;5005457;28;20041;-62
2023/12/20 05:37:09;;;;;;;1.73;0.70;;;;;;;3.85;100.00;97403.16;5007750;28;20509;-62
2023/12/20 05:39:35;;;;;;;1.55;0.63;;;;;;;3.84;100.00;97398.84;5005121;28;20033;-62
2023/12/20 05:42:02;;;;;;;1.50;0.95;;;;;;;3.86;100.00;97408.31;5003874;28;20042;-63
2023/12/20 05:44:28;;;;;;;0.98;0.57;;;;;;;3.82;100.00;97414.28;5003575;28;20054;-62
2023/12/20 05:46:55;;;;;;;1.05;0.50;;;;;;;3.80;100.00;97405.66;5003201;28;20517;-62
2023/12/20 05:49:21;;;;;;;1.50;0.82;;;;;;;3.81;100.00;97412.66;5005835;28;20048;-65
2023/12/20 05:51:48;;;;;;;1.10;0.63;;;;;;;3.83;100.00;97407.91;5001640;28;20046;-62
2023/12/20 05:54:15;;;;;;;1.50;0.70;;;;;;;3.81;100.00;97428.72;5006750;28;20042;-63
2023/12/20 05:56:41;;;;;;;3.35;0.90;;;;;;;3.77;100.00;97434.47;5005457;28;20045;-63
2023/12/20 05:59:08;;;;;;;2.58;1.00;;;;;;;3.81;100.00;97434.91;5005959;28;20034;-63
2023/12/20 06:01:34;;;;;;;0.82;0.40;;;;;;;3.81;100.00;97448.31;5001588;28;20045;-62
2023/12/20 06:04:01;;;;;;;0.63;0.40;;;;;;;3.90;100.00;97444.38;5003910;28;20308;-62
2023/12/20 06:06:28;;;;;;;1.95;0.65;;;;;;;3.88;100.00;97440.25;5006161;28;20627;-62
2023/12/20 06:08:54;;;;;;;2.58;0.70;;;;;;;3.90;100.00;97449.72;5005348;28;20569;-62
2023/12/20 06:11:21;;;;;;;1.40;0.70;;;;;;;3.95;100.00;97443.75;5005503;28;20097;-60
2023/12/20 06:13:48;;;;;;;1.83;0.70;;;;;;;4.01;100.00;97434.88;5004267;28;20044;-62
2023/12/20 06:16:15;;;;;;;1.65;0.85;;;;;;;3.98;100.00;97431.81;5005734;28;20689;-61
2023/12/20 06:18:42;;;;;;;2.20;1.10;;;;;;;3.97;100.00;97433.66;5003853;28;20033;-62
2023/12/20 06:21:12;;;;;;;2.35;1.00;;;;;;;4.02;100.00;97444.56;5005928;28;20828;-62
2023/12/20 06:23:39;;;;;;;2.20;0.80;;;;;;;4.10;100.00;97445.38;5003092;28;20604;-61
2023/12/20 06:26:05;;;;;;;1.60;0.90;;;;;;;4.06;100.00;97445.00;5002657;28;20046;-62
2023/12/20 06:28:32;;;;;;;1.48;0.77;;;;;;;4.03;100.00;97448.88;4996096;28;20042;-62
2023/12/20 06:31:00;;;;;;;6.57;3.75;;;;;;;4.01;100.00;97450.13;5000934;28;20128;-64
2023/12/20 06:33:27;;;;;;;2.20;1.00;;;;;;;4.00;100.00;97452.00;5001491;28;20128;-62
2023/12/20 06:35:53;;;;;;;9.82;6.88;;;;;;;3.96;100.00;97453.44;5003352;28;20746;-63
2023/12/20 06:38:20;;;;;;;3.58;1.30;;;;;;;3.98;100.00;97455.91;5003415;28;20058;-64
2023/12/20 06:40:46;;;;;;;5.80;3.03;;;;;;;4.00;100.00;97456.53;4999087;28;20042;-64
2023/12/20 06:43:13;;;;;;;2.60;1.48;;;;;;;4.02;100.00;97460.63;5002781;28;20041;-62
2023/12/20 06:45:58;;;;;;;4.57;2.83;;;;;;;3.97;100.00;97463.13;4996947;28;20059;-60
2023/12/20 06:48:25;;;;;;;3.15;1.67;;;;;;;3.99;100.00;97466.44;5002998;28;20041;-63
2023/12/20 06:50:51;;;;;;;3.33;1.90;;;;;;;3.94;100.00;97479.59;5003158;28;20038;-61
2023/12/20 06:53:18;;;;;;;3.80;2.40;;;;;;;3.90;100.00;97481.88;4999970;28;20122;-62
2023/12/20 06:55:44;;;;;;;4.57;2.85;;;;;;;3.86;100.00;97486.00;5001976;28;20046;-64
2023/12/20 06:58:11;;;;;;;5.22;2.90;;;;;;;3.91;100.00;97504.16;5003890;28;20029;-64
2023/12/20 07:00:38;;;;;;;4.15;1.95;;;;;;;3.92;100.00;97494.22;5000648;28;20037;-62
2023/12/20 07:03:04;;;;;;;5.20;2.80;;;;;;;3.92;100.00;97496.91;5002539;28;20505;-62
2023/12/20 07:05:31;;;;;;;5.18;2.80;;;;;;;3.97;100.00;97494.44;5002095;28;20671;-63
2023/12/20 07:07:58;;;;;;;3.95;2.42;;;;;;;3.97;100.00;97497.94;5002816;28;20122;-59
2023/12/20 07:10:25;;;;;;;3.75;2.03;;;;;;;3.88;100.00;97500.00;5002840;28;20107;-58
2023/12/20 07:12:52;;;;;;;3.83;2.10;;;;;;;3.89;100.00;97503.50;5002964;28;20080;-59
2023/12/20 07:15:19;;;;;;;3.90;1.98;;;;;;;3.79;100.00;97506.59;4997107;28;20068;-59
2023/12/20 07:17:45;;;;;;;3.47;1.70;;;;;;;3.79;100.00;97516.50;4999322;28;20041;-58
2023/12/20 07:20:12;;;;;;;6.35;3.03;;;;;;;3.71;100.00;97522.84;4999961;28;20038;-63
2023/12/20 07:22:39;;;;;;;5.47;1.73;;;;;;;3.70;100.00;97529.25;5003254;28;20124;-63
2023/12/20 07:25:07;;;;;;;4.97;2.53;;;;;;;3.69;100.00;97530.28;5002554;28;20049;-62
2023/12/20 07:27:33;;;;;;;5.80;3.30;;;;;;;3.66;100.00;97542.22;4996778;28;20050;-63
2023/12/20 07:30:00;;;;;;;4.60;2.80;;;;;;;3.62;100.00;97544.47;4998282;28;20160;-63
2023/12/20 07:32:27;;;;;;;11.27;6.80;;;;;;;3.59;100.00;97536.03;4998871;28;20056;-63
2023/12/20 07:34:54;;;;;;;3.70;2.10;;;;;;;3.56;100.00;97523.03;4993869;28;20049;-62
2023/12/20 07:37:21;;;;;;;10.10;6.07;;;;;;;3.51;100.00;97520.97;4991788;28;20073;-64
2023/12/20 07:39:48;;;;;;;6.32;4.15;;;;;;;3.47;100.00;97517.06;5002219;28;20045;-62
2023/12/20 07:42:14;;;;;;;8.07;4.80;;;;;;;3.47;100.00;97512.50;4994838;28;20056;-63
2023/12/20 07:44:41;;;;;;;5.75;3.10;;;;;;;3.46;100.00;97521.56;4999001;28;20144;-64
2023/12/20 07:47:08;;;;;;;6.25;2.85;;;;;;;3.43;100.00;97530.00;4999726;28;20100;-61
2023/12/20 07:49:35;;;;;;;6.43;3.50;;;;;;;3.40;100.00;97522.41;4997457;28;20052;-62
2023/12/20 07:52:01;;;;;;;7.82;4.75;;;;;;;3.31;100.00;97534.31;4999080;28;20042;-62
2023/12/20 07:54:28;;;;;;;4.63;3.03;;;;;;;3.29;100.00;97526.50;4998769;28;20048;-63
2023/12/20 07:56:55;;;;;;;4.35;2.60;;;;;;;3.29;100.00;97528.31;4998958;28;20054;-61
2023/12/20 07:59:22;;;;;;;6.05;3.05;;;;;;;3.28;100.00;97526.69;5002372;28;20037;-64
2023/12/20 08:01:58;;;;;;;9.15;4.35;;;;;;;3.33;100.00;97532.25;4999848;28;20050;-63
2023/12/20 08:04:25;;;;;;;5.28;3.13;;;;;;;3.31;100.00;97531.66;5002259;28;20130;-63
2023/12/20 08:06:52;;;;;;;8.52;3.33;;;;;;;3.24;100.00;97536.94;4994488;28;20525;-63
2023/12/20 08:09:19;;;;;;;5.60;3.17;;;;;;;3.17;100.00;97538.78;4999807;28;20148;-63
2023/12/20 08:11:46;;;;;;;5.38;3.10;;;;;;;3.13;100.00;97543.69;4997268;28;20045;-63
2023/12/20 08:14:13;;;;;;;5.50;2.80;;;;;;;3.11;100.00;97559.13;5000882;28;20046;-62
2023/12/20 08:16:40;;;;;;;3.92;2.45;;;;;;;3.07;100.00;97552.53;5000172;28;20044;-61
2023/12/20 08:19:07;;;;;;;6.45;3.00;;;;;;;3.07;100.00;97553.38;4998298;28;20080;-63
2023/12/20 08:21:34;;;;;;;4.85;2.95;;;;;;;3.07;100.00;97550.69;4997376;28;20046;-63
2023/12/20 08:24:04;;;;;;;6.03;2.53;;;;;;;3.04;100.00;97555.59;4998979;28;20287;-59
2023/12/20 08:26:30;;;;;;;5.75;2.85;;;;;;;2.98;100.00;97566.06;4996856;28;20042;-59
2023/12/20 08:28:57;;;;;;;5.10;3.08;;;;;;;3.01;100.00;97558.66;5000424;28;20445;-59
2023/12/20 08:31:27;;;;;;;4.45;2.83;;;;;;;2.98;100.00;97562.56;4997721;28;20044;-60
2023/12/20 08:33:54;;;;;;;4.72;2.72;;;;;;;3.06;100.00;97551.69;5001055;28;20533;-59
2023/12/20 08:36:22;;;;;;;5.30;2.80;;;;;;;3.09;100.00;97556.66;5001431;28;20125;-59
2023/12/20 08:38:49;;;;;;;4.65;2.78;;;;;;;3.08;100.00;97565.72;4997819;28;20096;-59
2023/12/20 08:41:17;;;;;;;4.93;2.80;;;;;;;3.03;100.00;97567.34;5002098;28;20127;-60
2023/12/20 08:43:44;;;;;;;4.60;2.72;;;;;;;3.07;100.00;97566.75;4999695;28;20046;-59
2023/12/20 08:46:11;;;;;;;9.18;3.00;;;;;;;3.16;100.00;97571.94;5001393;28;20042;-59
2023/12/20 08:48:38;;;;;;;7.10;2.78;;;;;;;3.20;100.00;97565.13;4999084;28;20060;-58
2023/12/20 08:51:08;;;;;;;4.05;2.42;;;;;;;3.23;100.00;97557.53;4997289;28;20033;-61
2023/12/20 08:53:34;;;;;;;5.82;2.50;;;;;;;3.30;100.00;97567.44;4994340;28;20050;-59
2023/12/20 08:56:01;;;;;;;3.17;1.90;;;;;;;3.31;100.00;97559.22;4996486;28;20128;-60
2023/12/20 08:58:28;;;;;;;4.68;2.30;;;;;;;3.38;100.00;97562.75;4999295;28;20041;-60
2023/12/20 09:00:55;;;;;;;4.05;2.40;;;;;;;3.40;100.00;97556.38;4993962;28;20047;-60
2023/12/20 09:03:22;;;;;;;4.25;1.83;;;;;;;3.41;100.00;97574.06;4999988;28;20139;-58
2023/12/20 09:05:48;;;;;;;6.90;2.03;;;;;;;3.44;100.00;97562.97;4998801;28;20041;-64
2023/12/20 09:08:15;;;;;;;5.10;1.33;;;;;;;3.48;100.00;97557.03;4999196;28;20125;-59
2023/12/20 09:10:41;;;;;;;4.65;1.50;;;;;;;3.54;100.00;97555.38;4999550;28;20587;-61
2023/12/20 09:13:08;;;;;;;2.50;1.35;;;;;;;3.59;100.00;97546.72;5001355;28;20045;-63
2023/12/20 09:15:35;;;;;;;7.75;1.80;;;;;;;3.58;100.00;97547.78;5001226;28;20042;-58
2023/12/20 09:18:03;;;;;;;3.30;1.30;;;;;;;3.66;100.00;97550.25;4999443;28;20120;-63
2023/12/20 09:20:30;;;;;;;1.65;0.93;;;;;;;3.66;100.00;97536.88;5000093;28;20065;-64
2023/12/20 09:22:57;;;;;;;11.82;3.60;;;;;;;3.67;100.00;97540.34;5000447;28;20687;-63
2023/12/20 09:25:24;;;;;;;6.13;2.63;;;;;;;3.64;100.00;97539.75;4995730;28;20046;-58
2023/12/20 09:27:50;;;;;;;8.30;2.38;;;;;;;3.69;100.00;97541.00;5000723;28;20120;-65
2023/12/20 09:30:18;;;;;;;9.60;4.15;;;;;;;3.79;100.00;97537.94;4999483;28;20038;-59
2023/12/20 09:32:54;;;;;;;7.00;2.17;;;;;;;3.79;100.00;97541.41;5000124;28;20057;-60
2023/12/20 09:35:21;;;;;;;5.05;1.50;;;;;;;3.82;100.00;97549.03;5002086;28;20213;-60
2023/12/20 09:37:48;;;;;;;6.15;1.35;;;;;;;3.82;100.00;97551.72;4996202;28;20046;-61
2023/12/20 09:40:18;;;;;;;3.55;1.23;;;;;;;3.87;100.00;97564.53;5001564;28;20065;-58
2023/12/20 09:42:57;;;;;;;7.43;1.45;;;;;;;3.89;100.00;97563.28;4995975;28;20034;-64
2023/12/20 09:45:25;;;;;;;3.08;0.98;;;;;;;3.89;100.00;97563.28;4997120;28;20150;-67
2023/12/20 09:47:54;;;;;;;11.95;1.48;;;;;;;3.90;100.00;97556.06;4999884;28;20042;-63
2023/12/20 09:50:21;;;;;;;8.15;1.77;;;;;;;3.89;100.00;97549.06;5001149;28;20046;-65
2023/12/20 09:52:53;;;;;;;6.90;1.70;;;;;;;3.99;100.00;97552.16;4997495;28;20117;-60
2023/12/20 09:55:20;;;;;;;;;;;;;;;3.92;100.00;97564.72;4998082;28;20096;-59
2023/12/20 09:57:47;;;;;;;3.70;1.10;;;;;;;3.67;100.00;97559.09;4996224;28;19983;-59
2023/12/20 10:00:17;;;;;;;4.43;1.30;;;;;;;3.51;100.00;97561.94;5001556;28;20643;-59
2023/12/20 10:03:00;;;;;;;4.70;1.63;;;;;;;3.41;100.00;97568.72;4998968;28;20064;-59
2023/12/20 10:05:31;;;;;;;6.63;1.80;;;;;;;3.47;100.00;97562.56;4997651;28;20046;-59
2023/12/20 10:07:59;;;;;;;;;;;;;;;3.39;100.00;97558.19;4998975;28;20045;-64
2023/12/20 10:10:27;;;;;;;5.20;1.70;;;;;;;3.32;100.00;97557.38;4995178;28;20395;-60
2023/12/20 10:13:12;;;;;;;5.53;1.63;;;;;;;3.31;100.00;97558.41;4999081;28;20045;-58
2023/12/20 10:15:40;;;;;;;7.45;1.80;;;;;;;3.28;100.00;97556.13;5000525;28;20057;-59
2023/12/20 10:18:08;;;;;;;6.22;1.67;;;;;;;3.23;100.00;97549.53;5000293;28;20112;-63
2023/12/20 10:20:34;;;;;;;1.92;1.23;;;;;;;3.17;100.00;97554.84;4998460;28;20091;-64
2023/12/20 10:23:02;;;;;;;5.85;1.63;;;;;;;3.25;100.00;97546.66;4995521;28;20064;-65
2023/12/20 10:25:28;;;;;;;8.45;2.22;;;;;;;3.35;100.00;97536.38;5000853;28;20048;-61
2023/12/20 10:28:27;;;;;;;7.85;1.98;;;;;;;3.34;100.00;97534.72;5003229;28;20049;-58
2023/12/20 10:30:58;;;;;;;7.03;1.30;;;;;;;3.58;100.00;97532.50;4994331;28;20062;-60
2023/12/20 10:33:26;;;;;;;8.57;2.45;;;;;;;3.61;100.00;97528.63;4999483;28;20061;-58
2023/12/20 10:35:53;;;;;;;7.43;2.13;;;;;;;3.65;100.00;97537.91;5002501;28;20061;-64
2023/12/20 10:38:20;;;;;;;4.70;1.90;;;;;;;3.77;100.00;97528.22;5004474;28;20034;-60
2023/12/20 10:40:47;;;;;;;3.63;1.35;;;;;;;3.87;100.00;97540.41;5003671;28;20045;-61
2023/12/20 10:43:15;;;;;;;4.65;1.52;;;;;;;3.97;100.00;97538.13;5001919;28;20112;-58
2023/12/20 10:45:43;;;;;;;3.58;1.20;;;;;;;4.07;100.00;97539.59;5002464;28;20561;-60
2023/12/20 10:48:11;;;;;;;6.13;1.80;;;;;;;4.09;100.00;97529.50;5003501;28;20513;-59
2023/12/20 10:50:40;;;;;;;6.88;1.63;;;;;;;4.08;100.00;97527.81;5001659;28;20045;-60
2023/12/20 10:53:07;;;;;;;3.58;1.58;;;;;;;3.94;100.00;97538.53;5003464;28;20847;-61
2023/12/20 10:55:34;;;;;;;7.57;1.83;;;;;;;3.84;100.00;97532.78;5000634;28;20078;-65
2023/12/20 10:58:05;;;;;;;3.40;1.55;;;;;;;3.72;100.00;97529.88;4999920;28;20425;-60
2023/12/20 11:00:32;;;;;;;7.30;1.60;;;;;;;3.69;100.00;97522.25;5000687;28;20107;-60
2023/12/20 11:03:04;;;;;;;5.20;1.42;;;;;;;3.54;100.00;97533.13;5005792;28;20073;-61
2023/12/20 11:05:30;;;;;;;3.00;1.20;;;;;;;3.43;100.00;97535.34;5002593;28;20045;-60
2023/12/20 11:08:06;;;;;;;5.00;2.38;;;;;;;3.50;100.00;97533.53;5001425;28;20053;-65
2023/12/20 11:10:50;;;;;;;7.03;1.45;;;;;;;3.53;100.00;97523.47;5001128;28;20053;-61
2023/12/20 11:13:22;;;;;;;5.80;1.52;;;;;;;3.55;100.00;97526.75;5002834;28;20038;-60
2023/12/20 11:15:49;;;;;;;4.30;1.25;;;;;;;3.62;100.00;97524.91;5001607;28;20619;-59
2023/12/20 11:18:16;;;;;;;4.82;1.73;;;;;;;3.62;100.00;97524.91;5003746;28;20151;-59
2023/12/20 11:20:43;;;;;;;4.97;1.50;;;;;;;3.72;100.00;97519.97;4999675;28;20038;-59
2023/12/20 11:23:09;;;;;;;2.70;1.35;;;;;;;3.71;100.00;97523.69;4999477;28;20509;-63
2023/12/20 11:26:00;;;;;;;4.00;1.60;;;;;;;3.90;100.00;97515.88;5002282;28;20643;-64
2023/12/20 11:28:27;;;;;;;3.90;1.20;;;;;;;3.95;100.00;97512.59;5000707;28;20042;-59
2023/12/20 11:30:55;;;;;;;5.57;1.40;;;;;;;3.97;100.00;97506.00;5002834;28;20461;-62
2023/12/20 11:33:24;;;;;;;3.17;1.20;;;;;;;4.06;100.00;97509.31;4999961;28;20502;-61
2023/12/20 11:35:57;;;;;;;5.03;1.52;;;;;;;4.18;100.00;97508.66;4999576;28;20121;-61